Time;durP1;ratioP1;P1;durP2;ratioP2;P2;SDS_P1;SDS_P2;PMS_P1;PMS_P2;Temp;Humidity;BMP_temperature;BMP_pressure;BME280_temperature;BME280_humidity;BME280_pressure;Samples;Min_cycle;Max_cycle;Signal;HPM_P1;HPM_P2
2023/05/13 00:07:34;;;;;;;4.88;2.35;;;15.20;1.00;;;;;;20632155;28;20049;-41
2023/05/13 00:17:35;;;;;;;4.47;1.80;;;15.20;1.00;;;;;;20644974;28;20038;-40
2023/05/13 00:27:37;;;;;;;4.82;2.38;;;15.10;1.00;;;;;;20641586;28;20072;-40
2023/05/13 00:37:37;;;;;;;3.92;2.60;;;14.90;1.00;;;;;;20632975;28;20046;-41
2023/05/13 00:47:40;;;;;;;3.47;2.40;;;14.70;1.00;;;;;;20637778;28;20038;-41
2023/05/13 00:57:41;;;;;;;3.88;2.20;;;14.70;1.00;;;;;;20638231;28;20409;-41
2023/05/13 01:08:13;;;;;;;3.42;2.08;;;14.60;1.00;;;;;;20631892;28;20056;-41
2023/05/13 01:18:19;;;;;;;3.92;2.28;;;14.40;1.00;;;;;;20622046;28;20045;-43
2023/05/13 01:28:20;;;;;;;4.35;3.00;;;14.20;1.00;;;;;;20635307;28;20402;-43
2023/05/13 01:38:21;;;;;;;4.72;2.72;;;14.20;1.00;;;;;;20632288;28;20474;-43
2023/05/13 01:48:24;;;;;;;5.88;3.55;;;14.10;1.00;;;;;;20633973;28;20046;-43
2023/05/13 01:58:25;;;;;;;14.40;2.95;;;14.10;1.00;;;;;;20623091;28;20046;-43
2023/05/13 02:08:26;;;;;;;6.07;3.85;;;14.10;1.00;;;;;;20616542;28;20049;-43
2023/05/13 02:18:28;;;;;;;7.68;4.32;;;14.10;1.00;;;;;;20632106;28;20034;-43
2023/05/13 02:28:29;;;;;;;6.63;3.47;;;14.20;1.00;;;;;;20647544;28;20517;-43
2023/05/13 02:38:30;;;;;;;6.03;3.85;;;14.10;1.00;;;;;;20647235;28;20042;-43
2023/05/13 02:48:31;;;;;;;8.10;4.38;;;14.10;1.00;;;;;;20635991;28;20512;-43
2023/05/13 02:58:33;;;;;;;5.88;4.13;;;14.00;1.00;;;;;;20611410;28;1073837;-43
2023/05/13 03:08:35;;;;;;;12.77;4.80;;;14.00;1.00;;;;;;20648775;28;20050;-43
2023/05/13 03:18:36;;;;;;;8.80;5.60;;;13.90;1.00;;;;;;20645519;28;20053;-43
2023/05/13 03:28:37;;;;;;;7.95;4.93;;;13.80;1.00;;;;;;20642940;28;20064;-43
2023/05/13 03:38:38;;;;;;;8.00;5.07;;;13.70;1.00;;;;;;20637079;28;20042;-43
2023/05/13 03:48:39;;;;;;;8.48;5.13;;;13.60;1.00;;;;;;20634276;28;20402;-43
2023/05/13 03:58:40;;;;;;;8.25;4.85;;;13.60;1.00;;;;;;20637848;28;20050;-43
2023/05/13 04:08:41;;;;;;;11.15;5.88;;;13.60;1.00;;;;;;20623378;28;20515;-43
2023/05/13 04:18:42;;;;;;;8.55;5.38;;;13.50;1.00;;;;;;20640387;28;20044;-43
2023/05/13 04:28:43;;;;;;;11.40;6.38;;;13.60;1.00;;;;;;20642316;28;20053;-43
2023/05/13 04:38:44;;;;;;;11.75;6.40;;;13.50;1.00;;;;;;20643600;28;20045;-43
2023/05/13 04:48:47;;;;;;;12.40;6.88;;;13.60;1.00;;;;;;20633701;28;20053;-43
2023/05/13 04:58:48;;;;;;;9.55;6.35;;;13.60;1.00;;;;;;20636431;28;20046;-43
2023/05/13 05:08:49;;;;;;;10.90;5.88;;;13.70;1.00;;;;;;20628626;28;20649;-44
2023/05/13 05:18:50;;;;;;;12.90;7.13;;;13.90;1.00;;;;;;20633031;28;20045;-43
2023/05/13 05:28:52;;;;;;;10.57;6.30;;;14.10;1.00;;;;;;20638794;28;20049;-43
2023/05/13 05:38:53;;;;;;;7.20;5.13;;;14.40;1.00;;;;;;20635281;28;20038;-43
2023/05/13 05:48:54;;;;;;;6.95;4.72;;;14.60;1.00;;;;;;20619610;28;20046;-43
2023/05/13 05:58:55;;;;;;;7.57;4.82;;;14.90;1.00;;;;;;20639462;28;20046;-44
2023/05/13 06:08:56;;;;;;;7.97;5.05;;;15.10;1.00;;;;;;20640350;28;20053;-43
2023/05/13 06:18:57;;;;;;;6.65;4.35;;;15.30;1.00;;;;;;20627755;28;20119;-43
2023/05/13 06:28:58;;;;;;;8.23;4.82;;;15.60;1.00;;;;;;20627251;28;20049;-43
2023/05/13 06:38:59;;;;;;;7.70;4.53;;;15.80;1.00;;;;;;20620042;28;20038;-43
2023/05/13 06:49:00;;;;;;;6.05;3.92;;;15.90;1.00;;;;;;20625616;28;20057;-43
2023/05/13 06:59:02;;;;;;;6.00;3.65;;;16.00;1.00;;;;;;20648005;28;20053;-43
2023/05/13 07:09:03;;;;;;;4.70;3.65;;;16.20;1.00;;;;;;20653778;28;20057;-43
2023/05/13 07:19:04;;;;;;;6.82;4.57;;;16.30;1.00;;;;;;20628142;28;20490;-44
2023/05/13 07:29:06;;;;;;;6.45;3.47;;;16.30;1.00;;;;;;20630492;28;20317;-44
2023/05/13 07:39:07;;;;;;;5.20;3.63;;;16.30;1.00;;;;;;20643736;28;20061;-43
2023/05/13 07:49:08;;;;;;;6.97;3.97;;;16.40;1.00;;;;;;20661174;28;20228;-44
2023/05/13 07:59:09;;;;;;;9.23;4.18;;;16.40;1.00;;;;;;20647164;28;20461;-42
2023/05/13 08:09:13;;;;;;;5.50;3.20;;;16.50;1.00;;;;;;20642418;28;20043;-43
2023/05/13 08:19:14;;;;;;;8.32;5.07;;;16.70;1.00;;;;;;20642392;28;20042;-42
2023/05/13 08:29:15;;;;;;;8.27;4.63;;;16.80;1.00;;;;;;20653414;28;21163;-43
2023/05/13 08:39:16;;;;;;;6.13;3.70;;;16.90;1.00;;;;;;20623796;28;20406;-44
2023/05/13 08:49:17;;;;;;;7.43;4.45;;;17.00;1.00;;;;;;20624580;28;20042;-42
2023/05/13 08:59:18;;;;;;;5.13;3.92;;;17.30;1.00;;;;;;20626312;28;20045;-42
2023/05/13 09:09:20;;;;;;;6.95;4.18;;;17.50;1.00;;;;;;20639788;28;20049;-42
2023/05/13 09:19:23;;;;;;;6.90;4.45;;;17.90;1.00;;;;;;20634680;28;20049;-42
2023/05/13 09:29:28;;;;;;;8.98;4.72;;;18.20;1.00;;;;;;20627031;28;20053;-42
2023/05/13 09:39:31;;;;;;;12.10;5.68;;;18.50;1.00;;;;;;20618597;28;20038;-42
2023/05/13 09:49:32;;;;;;;6.07;3.70;;;18.50;1.00;;;;;;20616158;28;20042;-42
2023/05/13 09:59:34;;;;;;;8.18;4.22;;;19.00;1.00;;;;;;20630287;28;20038;-42
2023/05/13 10:09:37;;;;;;;5.72;3.80;;;19.00;1.00;;;;;;20627774;28;20485;-42
2023/05/13 10:19:39;;;;;;;8.13;4.53;;;19.00;1.00;;;;;;20635014;28;20038;-42
2023/05/13 10:29:42;;;;;;;8.50;3.97;;;19.20;1.00;;;;;;20670283;28;20419;-42
2023/05/13 10:40:19;;;;;;;5.75;3.90;;;19.30;1.00;;;;;;20651018;28;20198;-43
2023/05/13 10:50:22;;;;;;;9.10;4.10;;;19.60;1.00;;;;;;20660338;28;20051;-42
2023/05/13 11:00:30;;;;;;;6.03;4.05;;;20.00;1.00;;;;;;20660574;28;20060;-42
2023/05/13 11:10:31;;;;;;;5.05;3.28;;;20.20;1.00;;;;;;20638918;28;20038;-42
2023/05/13 11:20:32;;;;;;;5.95;3.47;;;20.30;1.00;;;;;;20628683;28;20397;-42
2023/05/13 11:30:33;;;;;;;5.55;3.75;;;20.70;1.00;;;;;;20641029;28;20053;-44
2023/05/13 11:40:38;;;;;;;5.40;3.50;;;20.60;1.00;;;;;;20637341;28;20042;-43
2023/05/13 11:50:39;;;;;;;7.88;3.67;;;20.80;1.00;;;;;;20618206;28;20053;-43
2023/05/13 12:00:40;;;;;;;5.00;3.10;;;21.10;1.00;;;;;;20644360;28;20064;-43
2023/05/13 12:10:43;;;;;;;6.32;3.80;;;21.40;1.00;;;;;;20641296;28;20045;-43
2023/05/13 12:20:44;;;;;;;5.40;3.40;;;21.80;1.00;;;;;;20634982;28;20029;-44
2023/05/13 12:30:51;;;;;;;6.57;3.63;;;21.80;1.00;;;;;;20647516;28;20050;-43
2023/05/13 12:40:53;;;;;;;5.63;3.75;;;22.10;1.00;;;;;;20630482;28;20040;-44
2023/05/13 12:50:55;;;;;;;6.13;3.75;;;22.20;1.00;;;;;;20623494;28;20057;-43
2023/05/13 13:00:56;;;;;;;5.60;3.28;;;22.50;1.00;;;;;;20654357;28;20505;-44
2023/05/13 13:10:59;;;;;;;4.57;3.00;;;22.60;1.00;;;;;;20649984;28;20403;-44
2023/05/13 13:21:00;;;;;;;7.43;4.30;;;22.80;1.00;;;;;;20657300;28;20030;-44
2023/05/13 13:31:01;;;;;;;5.53;3.30;;;23.00;1.00;;;;;;20639101;28;20508;-44
2023/05/13 13:41:02;;;;;;;5.93;3.83;;;23.00;1.00;;;;;;20634219;28;20442;-44
2023/05/13 13:51:03;;;;;;;11.52;4.45;;;22.80;1.00;;;;;;20640578;28;20800;-44
2023/05/13 14:01:04;;;;;;;8.57;4.32;;;22.40;1.00;;;;;;20646086;28;20065;-44
2023/05/13 14:11:05;;;;;;;7.05;3.67;;;22.30;1.00;;;;;;20647810;28;20136;-44
2023/05/13 14:21:06;;;;;;;6.93;4.15;;;22.10;1.00;;;;;;20674253;28;20046;-44
2023/05/13 14:31:07;;;;;;;7.43;3.83;;;21.90;1.00;;;;;;20663250;28;20096;-44
2023/05/13 14:41:09;;;;;;;6.85;4.60;;;21.60;1.00;;;;;;20650477;28;20038;-44
2023/05/13 14:51:11;;;;;;;8.95;4.93;;;21.50;1.00;;;;;;20659589;28;20050;-44
2023/05/13 15:01:12;;;;;;;11.20;4.75;;;21.50;1.00;;;;;;20661124;28;20414;-44
2023/05/13 15:11:13;;;;;;;6.57;4.63;;;21.20;1.00;;;;;;20646400;28;20038;-44
2023/05/13 15:21:14;;;;;;;8.38;5.38;;;21.10;1.00;;;;;;20628237;28;20041;-41
2023/05/13 15:31:15;;;;;;;10.30;4.45;;;21.00;1.00;;;;;;20641110;28;20332;-41
2023/05/13 15:41:16;;;;;;;7.20;3.88;;;20.90;1.00;;;;;;20634962;28;20050;-41
2023/05/13 15:51:17;;;;;;;7.70;3.90;;;20.70;1.00;;;;;;20642200;28;20041;-42
2023/05/13 16:01:18;;;;;;;6.40;4.30;;;20.70;1.00;;;;;;20635864;28;20045;-41
2023/05/13 16:11:19;;;;;;;7.40;4.65;;;20.70;1.00;;;;;;20652363;28;20034;-41
2023/05/13 16:21:20;;;;;;;5.47;3.33;;;20.50;1.00;;;;;;20638521;28;20038;-41
2023/05/13 16:31:21;;;;;;;6.25;4.50;;;20.30;1.00;;;;;;20657882;28;20038;-42
2023/05/13 16:41:22;;;;;;;5.28;3.78;;;20.10;1.00;;;;;;20638136;28;20762;-42
2023/05/13 16:51:23;;;;;;;6.05;4.30;;;20.00;1.00;;;;;;20630914;28;20050;-41
2023/05/13 17:01:24;;;;;;;8.60;4.82;;;19.80;1.00;;;;;;20660849;28;20073;-41
2023/05/13 17:11:26;;;;;;;8.35;4.10;;;19.50;1.00;;;;;;20648785;28;20041;-41
2023/05/13 17:21:27;;;;;;;5.68;4.13;;;19.40;1.00;;;;;;20635039;28;20171;-41
2023/05/13 17:31:28;;;;;;;5.47;4.10;;;19.30;1.00;;;;;;20656786;28;20410;-41
2023/05/13 17:41:29;;;;;;;6.40;3.75;;;19.10;1.00;;;;;;20645704;28;20052;-41
2023/05/13 17:51:30;;;;;;;8.30;4.95;;;18.90;1.00;;;;;;20648431;28;20037;-41
2023/05/13 18:01:31;;;;;;;7.25;4.45;;;18.80;1.00;;;;;;20651322;28;20478;-41
2023/05/13 18:11:32;;;;;;;7.20;4.43;;;18.60;1.00;;;;;;20648299;28;20421;-41
2023/05/13 18:21:33;;;;;;;6.35;4.18;;;18.50;1.00;;;;;;20644155;28;20160;-41
2023/05/13 18:31:34;;;;;;;6.50;4.22;;;18.30;1.00;;;;;;20648511;28;20170;-41
2023/05/13 18:41:35;;;;;;;7.45;4.13;;;18.10;1.00;;;;;;20649207;28;20117;-41
2023/05/13 18:51:37;;;;;;;8.30;5.25;;;17.80;1.00;;;;;;20634346;28;20472;-41
2023/05/13 19:01:38;;;;;;;13.43;8.75;;;17.60;1.00;;;;;;20636184;28;20050;-43
2023/05/13 19:11:39;;;;;;;8.27;5.25;;;17.40;1.00;;;;;;20635639;28;20057;-43
2023/05/13 19:21:41;;;;;;;13.73;5.10;;;17.20;1.00;;;;;;20641956;28;21116;-42
2023/05/13 19:31:42;;;;;;;11.40;6.03;;;16.90;1.00;;;;;;20650391;28;20054;-42
2023/05/13 19:41:46;;;;;;;9.85;5.18;;;16.60;1.00;;;;;;20647202;28;20447;-42
2023/05/13 19:51:47;;;;;;;12.50;5.97;;;16.50;1.00;;;;;;20648899;28;20046;-42
2023/05/13 20:01:48;;;;;;;10.52;6.15;;;16.30;1.00;;;;;;20638776;28;20123;-42
2023/05/13 20:11:51;;;;;;;15.25;7.25;;;16.10;1.00;;;;;;20638533;28;20042;-42
2023/05/13 20:21:52;;;;;;;8.48;5.63;;;16.00;1.00;;;;;;20637831;28;20203;-42
2023/05/13 20:31:53;;;;;;;9.77;5.70;;;15.90;1.00;;;;;;20643852;28;20049;-42
2023/05/13 20:41:54;;;;;;;9.27;5.78;;;15.90;1.00;;;;;;20639962;28;20053;-42
2023/05/13 20:52:03;;;;;;;11.02;5.20;;;15.80;1.00;;;;;;20640681;28;20049;-42
2023/05/13 21:02:04;;;;;;;11.73;6.00;;;15.60;1.00;;;;;;20635432;28;20144;-41
2023/05/13 21:12:05;;;;;;;10.80;6.38;;;15.60;1.00;;;;;;20632623;28;20038;-42
2023/05/13 21:22:06;;;;;;;7.05;5.43;;;15.60;1.00;;;;;;20620844;28;20030;-41
2023/05/13 21:32:07;;;;;;;8.48;5.57;;;15.50;1.00;;;;;;20638837;28;21629;-42
2023/05/13 21:42:08;;;;;;;10.32;5.80;;;15.50;1.00;;;;;;20632814;28;20034;-42
2023/05/13 21:52:10;;;;;;;13.70;7.15;;;15.40;1.00;;;;;;20624392;28;20041;-42
2023/05/13 22:02:11;;;;;;;8.90;5.85;;;15.30;1.00;;;;;;20631660;28;21285;-43
2023/05/13 22:12:12;;;;;;;10.85;6.15;;;15.20;1.00;;;;;;20629737;28;20461;-42
2023/05/13 22:22:13;;;;;;;10.02;6.80;;;15.10;1.00;;;;;;20637410;28;20033;-42
2023/05/13 22:32:14;;;;;;;11.13;5.78;;;15.00;1.00;;;;;;20652302;28;20045;-42
2023/05/13 22:42:15;;;;;;;13.18;6.72;;;14.90;1.00;;;;;;20648752;28;20431;-42
2023/05/13 22:52:16;;;;;;;14.18;5.78;;;14.70;1.00;;;;;;20635483;28;20085;-42
2023/05/13 23:02:17;;;;;;;8.77;5.28;;;14.70;1.00;;;;;;20638441;28;20049;-42
2023/05/13 23:12:18;;;;;;;11.45;6.05;;;14.60;1.00;;;;;;20648182;28;20169;-42
2023/05/13 23:22:19;;;;;;;12.32;6.13;;;14.50;1.00;;;;;;20641389;28;20034;-42
2023/05/13 23:32:20;;;;;;;16.85;6.45;;;14.40;1.00;;;;;;20634310;28;21534;-42
2023/05/13 23:42:21;;;;;;;10.30;6.15;;;14.30;1.00;;;;;;20644091;28;20112;-43
2023/05/13 23:52:23;;;;;;;9.70;5.07;;;14.20;1.00;;;;;;20643418;28;20038;-42
